Time;durP1;ratioP1;P1;durP2;ratioP2;P2;SDS_P1;SDS_P2;PMS_P1;PMS_P2;Temp;Humidity;BMP_temperature;BMP_pressure;BME280_temperature;BME280_humidity;BME280_pressure;Samples;Min_cycle;Max_cycle;Signal;HPM_P1;HPM_P2
2021/05/01 00:00:14;;;;;;;13.68;6.57;;;;;;;-150.07;47.45;54949.06;5040761;28;20025;-92
2021/05/01 00:02:44;;;;;;;12.95;6.05;;;;;;;-150.07;48.92;54951.16;5035531;28;20546;-89
2021/05/01 00:05:12;;;;;;;12.05;6.97;;;;;;;-150.07;49.69;54951.16;5047181;28;20024;-91
2021/05/01 00:07:39;;;;;;;19.48;9.15;;;;;;;-150.07;49.44;54951.16;5057376;28;20032;-90
2021/05/01 00:10:07;;;;;;;18.00;6.85;;;;;;;-150.07;50.51;54951.16;5037218;28;20049;-87
2021/05/01 00:12:35;;;;;;;10.98;7.15;;;;;;;-150.07;49.95;54946.97;5040085;28;20025;-86
2021/05/01 00:15:02;;;;;;;19.48;5.80;;;;;;;-150.07;49.17;54951.16;5030989;28;20030;-84
2021/05/01 00:17:29;;;;;;;17.10;6.28;;;;;;;-150.07;49.14;54951.16;5027261;28;20022;-85
2021/05/01 00:19:55;;;;;;;12.85;4.75;;;;;;;-150.07;46.50;54951.16;5039213;28;20144;-87
2021/05/01 00:22:24;;;;;;;7.80;3.85;;;;;;;-150.07;46.17;54949.06;5043357;28;20985;-86
2021/05/01 00:24:51;;;;;;;19.98;4.63;;;;;;;-150.07;45.77;54951.16;5049132;28;20048;-85
2021/05/01 00:27:18;;;;;;;12.60;3.80;;;;;;;-150.07;45.54;54951.16;5056384;28;20073;-91
2021/05/01 00:29:45;;;;;;;15.55;4.05;;;;;;;-150.07;44.90;54949.06;5052617;28;20005;-87
2021/05/01 00:32:12;;;;;;;8.35;3.67;;;;;;;-150.07;45.67;54951.16;5052826;28;20068;-88
2021/05/01 00:34:42;;;;;;;12.43;4.05;;;;;;;-150.07;45.21;54951.16;5057937;28;20045;-89
2021/05/01 00:37:08;;;;;;;10.30;3.47;;;;;;;-150.07;45.06;54946.97;5072731;28;20025;-88
2021/05/01 00:39:35;;;;;;;15.60;4.32;;;;;;;-150.07;44.60;54951.16;5069687;28;20071;-86
2021/05/01 00:42:02;;;;;;;22.30;4.80;;;;;;;-150.07;46.10;54951.16;5049418;28;20029;-89
2021/05/01 00:44:29;;;;;;;9.88;3.40;;;;;;;-150.07;46.68;54949.06;5048235;28;20034;-88
2021/05/01 00:46:56;;;;;;;11.38;4.15;;;;;;;-150.07;47.31;54951.16;5051731;28;20045;-89
2021/05/01 00:49:23;;;;;;;9.05;3.63;;;;;;;-150.07;46.55;54949.06;5046748;28;20563;-91
2021/05/01 00:51:50;;;;;;;14.10;4.03;;;;;;;-150.07;48.12;54951.16;5026554;28;20036;-93
2021/05/01 00:54:17;;;;;;;10.73;4.13;;;;;;;-150.07;47.83;54949.06;5032448;28;20175;-91
2021/05/01 00:56:43;;;;;;;11.77;4.03;;;;;;;-150.07;49.12;54951.16;5037591;28;20021;-91
2021/05/01 00:59:10;;;;;;;16.27;5.78;;;;;;;-150.07;48.76;54949.06;5037957;28;20018;-91
2021/05/01 01:01:47;;;;;;;15.40;4.28;;;;;;;-150.07;51.23;54946.97;5048754;28;20009;-93
2021/05/01 01:04:14;;;;;;;15.23;4.80;;;;;;;-150.07;52.50;54946.97;5033534;28;20040;-94
2021/05/01 01:06:41;;;;;;;25.48;5.07;;;;;;;-150.07;51.75;54949.06;5046712;28;20018;-94
2021/05/01 01:09:09;;;;;;;11.98;4.10;;;;;;;-150.07;51.56;54946.97;5038253;28;20062;-94
2021/05/01 01:11:37;;;;;;;13.85;4.20;;;;;;;-150.07;50.70;54951.16;5019294;28;20030;-92
2021/05/01 01:14:06;;;;;;;13.65;5.22;;;;;;;-150.07;50.98;54951.16;5032280;28;20041;-94
2021/05/01 01:16:35;;;;;;;14.57;5.15;;;;;;;-150.07;51.67;54949.06;5045600;28;20022;-92
2021/05/01 01:19:03;;;;;;;12.05;4.95;;;;;;;-150.07;50.74;54951.16;5018265;28;20033;-91
2021/05/01 01:21:30;;;;;;;9.18;3.33;;;;;;;-150.07;51.71;54946.97;5039165;28;20025;-92
2021/05/01 01:23:57;;;;;;;14.65;4.22;;;;;;;-150.07;51.14;54949.06;5035212;28;20026;-92
2021/05/01 01:26:24;;;;;;;10.52;4.38;;;;;;;-150.07;50.63;54951.16;5034767;28;20117;-91
2021/05/01 01:28:51;;;;;;;14.80;5.18;;;;;;;-150.07;51.09;54951.16;5037113;28;20037;-92
2021/05/01 01:31:18;;;;;;;10.60;4.50;;;;;;;-150.07;50.99;54946.97;5036560;28;20120;-91
2021/05/01 01:33:47;;;;;;;14.38;5.30;;;;;;;-150.07;50.35;54946.97;5041780;28;20022;-94
2021/05/01 01:36:14;;;;;;;11.32;4.95;;;;;;;-150.07;50.88;54951.16;5033599;28;20052;-93
2021/05/01 01:38:41;;;;;;;17.10;5.20;;;;;;;-150.07;50.90;54949.06;5037700;28;20032;-88
2021/05/01 01:41:07;;;;;;;17.48;7.05;;;;;;;-150.07;50.87;54949.06;5042840;28;20100;-91
2021/05/01 01:43:37;;;;;;;18.83;6.07;;;;;;;-150.07;51.31;54951.16;5033208;28;20036;-79
2021/05/01 01:46:04;;;;;;;16.10;5.95;;;;;;;-150.07;51.68;54946.97;5052755;28;20593;-91
2021/05/01 01:48:31;;;;;;;21.92;6.75;;;;;;;-150.07;51.37;54951.16;5056437;28;20070;-91
2021/05/01 01:50:58;;;;;;;11.77;7.53;;;;;;;-150.07;52.11;54951.16;5046505;28;20028;-88
2021/05/01 01:53:27;;;;;;;12.70;6.60;;;;;;;-150.07;51.93;54951.16;5043467;28;20032;-90
2021/05/01 01:55:57;;;;;;;16.98;6.20;;;;;;;-150.07;53.96;54951.16;5057894;28;20025;-94
2021/05/01 01:58:24;;;;;;;16.25;5.38;;;;;;;-150.07;53.73;54949.06;5064783;28;20025;-88
2021/05/01 02:00:53;;;;;;;11.60;5.65;;;;;;;-150.07;53.99;54951.16;5063376;28;20029;-90
2021/05/01 02:03:20;;;;;;;12.65;6.40;;;;;;;-150.07;53.56;54951.16;5067692;28;20021;-90
2021/05/01 02:05:48;;;;;;;17.65;6.65;;;;;;;-150.07;52.66;54951.16;5072141;28;20102;-91
2021/05/01 02:08:16;;;;;;;16.30;7.13;;;;;;;-150.07;52.34;54949.06;5077565;28;20036;-92
2021/05/01 02:10:43;;;;;;;17.42;7.20;;;;;;;-150.07;51.97;54951.16;5077868;28;20025;-92
2021/05/01 02:13:10;;;;;;;16.55;8.32;;;;;;;-150.07;52.53;54951.16;5066256;28;20123;-89
2021/05/01 02:15:37;;;;;;;13.15;7.90;;;;;;;-150.07;52.31;54951.16;5054768;28;20036;-90
2021/05/01 02:18:04;;;;;;;19.60;8.63;;;;;;;-150.07;53.50;54949.06;5049587;28;20028;-91
2021/05/01 02:20:35;;;;;;;12.90;8.23;;;;;;;-150.07;53.93;54951.16;5046690;28;20017;-89
2021/05/01 02:23:05;;;;;;;19.27;8.35;;;;;;;-150.07;52.84;54949.06;5051393;28;20017;-90
2021/05/01 02:25:33;;;;;;;17.02;8.18;;;;;;;-150.07;53.87;54951.16;5051288;28;20055;-91
2021/05/01 02:28:00;;;;;;;23.38;11.93;;;;;;;-150.07;53.67;54951.16;5072162;28;20096;-91
2021/05/01 02:30:28;;;;;;;25.73;12.68;;;;;;;-150.07;54.33;54951.16;5072895;28;20013;-93
2021/05/01 02:32:56;;;;;;;16.83;10.73;;;;;;;-150.07;53.43;54951.16;5058502;28;20072;-90
2021/05/01 02:35:28;;;;;;;33.95;13.40;;;;;;;-150.07;52.76;54951.16;5057284;28;20013;-91
2021/05/01 02:37:55;;;;;;;21.23;13.45;;;;;;;-150.07;52.86;54949.06;5056687;28;20029;-94
2021/05/01 02:40:23;;;;;;;29.50;13.80;;;;;;;-150.07;52.55;54951.16;5053030;28;20025;-92
2021/05/01 02:42:51;;;;;;;22.42;12.35;;;;;;;-150.07;52.39;54951.16;5044090;28;20025;-90
2021/05/01 02:45:20;;;;;;;26.65;13.07;;;;;;;-150.07;53.06;54951.16;5050066;28;20036;-90
2021/05/01 02:47:48;;;;;;;23.13;12.70;;;;;;;-150.07;53.08;54951.16;5052138;28;20541;-90
2021/05/01 02:50:16;;;;;;;27.05;13.60;;;;;;;-150.07;53.29;54949.06;5037182;28;20268;-91
2021/05/01 02:52:44;;;;;;;34.47;15.75;;;;;;;-150.07;54.12;54949.06;5035839;28;20033;-93
2021/05/01 02:55:11;;;;;;;27.25;14.63;;;;;;;-150.07;53.54;54949.06;5038042;28;20036;-93
2021/05/01 02:57:39;;;;;;;32.80;17.05;;;;;;;-150.07;53.01;54951.16;5037018;28;20479;-93
2021/05/01 03:00:13;;;;;;;30.88;16.63;;;;;;;-150.07;52.75;54951.16;5038754;28;20057;-93
2021/05/01 03:02:41;;;;;;;29.30;16.27;;;;;;;-150.07;52.96;54951.16;5037508;28;20053;-92
2021/05/01 03:05:09;;;;;;;26.73;15.60;;;;;;;-150.07;53.75;54951.16;5037488;28;20108;-93
2021/05/01 03:07:36;;;;;;;30.40;15.63;;;;;;;-150.07;52.89;54951.16;5040934;28;20075;-92
2021/05/01 03:10:14;;;;;;;27.20;16.20;;;;;;;-150.07;52.52;54951.16;5043127;28;20081;-93
2021/05/01 03:12:41;;;;;;;35.03;15.63;;;;;;;-150.07;51.80;54951.16;5040919;28;20034;-91
2021/05/01 03:15:10;;;;;;;28.85;17.52;;;;;;;-150.07;51.01;54946.97;5049458;28;20055;-90
2021/05/01 03:17:37;;;;;;;30.58;15.07;;;;;;;-150.07;50.50;54951.16;5069311;28;20033;-91
2021/05/01 03:20:08;;;;;;;35.65;15.68;;;;;;;-150.07;52.33;54951.16;5047894;28;20033;-91
2021/05/01 03:22:36;;;;;;;35.72;15.98;;;;;;;-150.07;53.13;54949.06;5032201;28;20026;-89
2021/05/01 03:25:05;;;;;;;34.95;15.88;;;;;;;-150.07;53.39;54951.16;5036436;28;20442;-90
2021/05/01 03:27:32;;;;;;;34.65;17.85;;;;;;;-150.07;54.58;54949.06;5035974;28;20029;-90
2021/05/01 03:29:59;;;;;;;29.80;16.60;;;;;;;-150.07;54.73;54951.16;5033599;28;20041;-91
2021/05/01 03:32:26;;;;;;;26.48;15.57;;;;;;;-150.07;54.11;54951.16;5033077;28;20060;-89
2021/05/01 03:34:53;;;;;;;34.75;17.42;;;;;;;-150.07;52.82;54951.16;5033532;28;20079;-90
2021/05/01 03:37:20;;;;;;;32.08;19.42;;;;;;;-150.07;52.40;54946.97;5032525;28;20029;-91
2021/05/01 03:39:47;;;;;;;34.28;17.17;;;;;;;-150.07;54.70;54951.16;5034223;28;20047;-90
2021/05/01 03:42:18;;;;;;;26.33;16.83;;;;;;;-150.07;54.32;54951.16;5034071;28;20042;-89
2021/05/01 03:44:45;;;;;;;34.90;17.27;;;;;;;-150.07;54.72;54955.34;5033618;28;20032;-91
2021/05/01 03:47:12;;;;;;;33.83;17.15;;;;;;;-150.07;53.78;54951.16;5047113;28;20029;-91
2021/05/01 03:49:39;;;;;;;40.60;17.95;;;;;;;-150.07;53.29;54951.16;5027779;28;20030;-90
2021/05/01 03:52:06;;;;;;;38.42;18.15;;;;;;;-150.07;53.10;54949.06;5032301;28;20025;-90
2021/05/01 03:54:33;;;;;;;26.27;17.73;;;;;;;-150.07;53.36;54951.16;5047325;28;20032;-90
2021/05/01 03:57:00;;;;;;;27.83;17.27;;;;;;;-150.07;53.41;54949.06;5047409;28;20028;-90
2021/05/01 03:59:27;;;;;;;31.20;16.75;;;;;;;-150.07;53.89;54949.06;5041963;28;20053;-90
2021/05/01 04:01:54;;;;;;;35.08;18.10;;;;;;;-150.07;52.95;54951.16;5034296;28;20028;-91
2021/05/01 04:04:21;;;;;;;37.88;18.63;;;;;;;-150.07;53.67;54951.16;5053678;28;20025;-90
2021/05/01 04:06:48;;;;;;;35.40;16.63;;;;;;;-150.07;52.94;54951.16;5048156;28;20025;-91
2021/05/01 04:09:18;;;;;;;34.78;16.75;;;;;;;-150.07;53.30;54951.16;5043238;28;20029;-91
2021/05/01 04:11:45;;;;;;;28.35;17.33;;;;;;;-150.07;52.09;54949.06;5052630;28;20350;-91
2021/05/01 04:14:11;;;;;;;25.80;16.10;;;;;;;-150.07;51.64;54946.97;5050395;28;20037;-91
2021/05/01 04:16:38;;;;;;;27.08;15.85;;;;;;;-150.07;51.54;54951.16;5038559;28;20703;-86
2021/05/01 04:19:05;;;;;;;21.73;15.20;;;;;;;-150.07;51.21;54951.16;5031789;28;20037;-91
2021/05/01 04:21:32;;;;;;;28.52;15.02;;;;;;;-150.07;50.53;54951.16;5037698;28;20036;-88
2021/05/01 04:23:59;;;;;;;21.42;14.40;;;;;;;-150.07;50.15;54951.16;5045968;28;20034;-89
2021/05/01 04:26:26;;;;;;;32.83;14.35;;;;;;;-150.07;51.75;54951.16;5055410;28;20035;-88
2021/05/01 04:28:53;;;;;;;29.35;12.35;;;;;;;-150.07;52.28;54951.16;5057399;28;20044;-91
2021/05/01 04:31:20;;;;;;;21.08;14.02;;;;;;;-150.07;51.62;54951.16;5033251;28;20113;-90
2021/05/01 04:33:47;;;;;;;19.88;12.77;;;;;;;-150.07;51.15;54951.16;5033325;28;20037;-91
2021/05/01 04:36:14;;;;;;;26.13;12.48;;;;;;;-150.07;50.02;54951.16;5045429;28;20029;-91
2021/05/01 04:38:40;;;;;;;19.45;13.02;;;;;;;-150.07;48.76;54946.97;5052317;28;20028;-90
2021/05/01 04:41:07;;;;;;;20.60;14.10;;;;;;;-150.07;49.15;54951.16;5051047;28;20029;-91
2021/05/01 04:43:34;;;;;;;23.75;13.20;;;;;;;-150.07;48.76;54951.16;5031551;28;20556;-91
2021/05/01 04:46:01;;;;;;;23.02;13.05;;;;;;;-150.07;48.00;54951.16;5032547;28;20029;-91
2021/05/01 04:48:32;;;;;;;18.13;12.48;;;;;;;-150.07;48.92;54951.16;5032941;28;20084;-90
2021/05/01 04:50:59;;;;;;;17.23;12.85;;;;;;;-150.07;48.98;54949.06;5035229;28;20025;-90
2021/05/01 04:53:25;;;;;;;26.58;13.75;;;;;;;-150.07;48.92;54949.06;5037265;28;20029;-91
2021/05/01 04:55:53;;;;;;;21.17;14.18;;;;;;;-150.07;49.34;54946.97;5034538;28;20430;-89
2021/05/01 04:58:19;;;;;;;21.60;12.73;;;;;;;-150.07;49.93;54951.16;5032039;28;20491;-91
2021/05/01 05:00:47;;;;;;;20.70;12.50;;;;;;;-150.07;48.59;54949.06;5033873;28;20026;-91
2021/05/01 05:03:15;;;;;;;20.85;11.80;;;;;;;-150.07;48.65;54946.97;5020402;28;20551;-94
2021/05/01 05:05:46;;;;;;;18.77;12.20;;;;;;;-150.07;50.18;54951.16;5033912;28;20037;-95
2021/05/01 05:08:13;;;;;;;19.48;11.68;;;;;;;-150.07;51.27;54949.06;5042683;28;20033;-94
2021/05/01 05:10:39;;;;;;;22.23;11.85;;;;;;;-150.07;51.77;54946.97;5059220;28;20040;-94
2021/05/01 05:13:06;;;;;;;30.00;12.35;;;;;;;-150.07;51.77;54949.06;5049037;28;20022;-94
2021/05/01 05:15:33;;;;;;;20.42;10.75;;;;;;;-150.07;50.80;54949.06;5030378;28;20026;-96
2021/05/01 05:18:00;;;;;;;12.80;10.02;;;;;;;-150.07;50.06;54951.16;5038120;28;20502;-93
2021/05/01 05:20:27;;;;;;;18.15;7.75;;;;;;;-150.07;49.69;54951.16;5053039;28;20037;-94
2021/05/01 05:22:54;;;;;;;12.23;6.40;;;;;;;-150.07;47.54;54951.16;5042625;28;20021;-93
2021/05/01 05:25:21;;;;;;;13.32;4.80;;;;;;;-150.07;46.76;54949.06;5054700;28;20026;-93
2021/05/01 05:27:48;;;;;;;7.97;2.83;;;;;;;-150.07;44.22;54951.16;5044749;28;20041;-93
2021/05/01 05:30:15;;;;;;;7.30;3.00;;;;;;;-150.07;43.29;54951.16;5054247;28;20017;-93
2021/05/01 05:32:42;;;;;;;5.70;2.92;;;;;;;-150.07;42.92;54951.16;5056605;28;20105;-93
2021/05/01 05:35:10;;;;;;;8.32;2.80;;;;;;;-150.07;42.03;54949.06;5051441;28;20041;-94
2021/05/01 05:37:37;;;;;;;3.75;2.05;;;;;;;-150.07;42.53;54951.16;5046282;28;20068;-93
2021/05/01 05:40:05;;;;;;;2.92;2.33;;;;;;;-150.07;42.81;54951.16;5042182;28;20083;-94
2021/05/01 05:42:34;;;;;;;7.43;2.50;;;;;;;-150.07;42.10;54949.06;5045239;28;20028;-93
2021/05/01 05:45:01;;;;;;;5.95;2.35;;;;;;;-150.07;42.13;54951.16;5025801;28;20053;-91
2021/05/01 05:47:28;;;;;;;4.70;2.10;;;;;;;-150.07;42.27;54949.06;5038844;28;20029;-90
2021/05/01 05:49:54;;;;;;;5.00;2.63;;;;;;;-150.07;44.01;54951.16;5044485;28;20032;-92
2021/05/01 05:52:21;;;;;;;11.95;2.88;;;;;;;-150.07;48.29;54949.06;5049693;28;20436;-92
2021/05/01 05:54:48;;;;;;;13.30;3.17;;;;;;;-150.07;49.84;54951.16;5055339;28;20026;-90
2021/05/01 05:57:15;;;;;;;6.22;3.40;;;;;;;-150.07;51.16;54949.06;5057664;28;20081;-94
2021/05/01 05:59:44;;;;;;;5.63;3.13;;;;;;;-150.07;50.33;54946.97;5054176;28;20017;-95
2021/05/01 06:02:20;;;;;;;5.70;3.35;;;;;;;-150.07;51.39;54949.06;5054819;28;20048;-94
2021/05/01 06:05:10;;;;;;;5.78;3.58;;;;;;;-150.07;51.87;54951.16;5037218;28;20036;-92
2021/05/01 06:08:01;;;;;;;6.63;3.92;;;;;;;-150.07;51.06;54949.06;5037549;28;20021;-93
2021/05/01 06:10:30;;;;;;;9.80;3.45;;;;;;;-150.07;50.70;54951.16;5051792;28;20041;-93
2021/05/01 06:12:58;;;;;;;12.20;4.10;;;;;;;-150.07;50.76;54951.16;5053719;28;20559;-94
2021/05/01 06:15:25;;;;;;;8.55;3.97;;;;;;;-150.07;51.74;54951.16;5042128;28;20029;-91
2021/05/01 06:17:56;;;;;;;11.27;5.20;;;;;;;-150.07;52.54;54951.16;5038675;28;20083;-88
2021/05/01 06:20:23;;;;;;;9.43;4.40;;;;;;;-150.07;53.12;54949.06;5035283;28;20026;-94
2021/05/01 06:22:53;;;;;;;13.60;4.80;;;;;;;-150.07;54.02;54949.06;5031866;28;20034;-94
2021/05/01 06:25:21;;;;;;;11.55;4.90;;;;;;;-150.07;53.71;54949.06;5043504;28;20029;-94
2021/05/01 06:27:51;;;;;;;14.52;5.07;;;;;;;-150.07;53.85;54951.16;5042691;28;20033;-90
2021/05/01 06:30:20;;;;;;;12.30;5.32;;;;;;;-150.07;53.74;54949.06;5040939;28;20048;-88
2021/05/01 06:32:48;;;;;;;12.20;4.53;;;;;;;-150.07;53.50;54951.16;5034431;28;20053;-91
2021/05/01 06:35:15;;;;;;;10.05;4.95;;;;;;;-150.07;54.42;54951.16;5034533;28;20394;-90
2021/05/01 06:37:44;;;;;;;10.73;5.75;;;;;;;-150.07;53.99;54951.16;5034485;28;20026;-91
2021/05/01 06:40:16;;;;;;;11.50;5.03;;;;;;;-150.07;53.33;54951.16;5033075;28;20395;-94
2021/05/01 06:43:04;;;;;;;15.32;5.10;;;;;;;-150.07;53.32;54951.16;5035633;28;20030;-92
2021/05/01 06:45:34;;;;;;;9.05;4.55;;;;;;;-150.07;52.40;54951.16;5031616;28;20022;-93
2021/05/01 06:48:06;;;;;;;11.90;4.30;;;;;;;-150.07;53.13;54949.06;5033854;28;20030;-90
2021/05/01 06:50:34;;;;;;;10.77;4.72;;;;;;;-150.07;53.92;54951.16;5031388;28;20026;-90
2021/05/01 06:53:02;;;;;;;7.15;4.85;;;;;;;-150.07;54.57;54949.06;5017736;28;20044;-90
2021/05/01 06:55:32;;;;;;;7.60;4.75;;;;;;;-150.07;55.62;54951.16;5036305;28;20030;-89
2021/05/01 06:58:03;;;;;;;9.07;4.32;;;;;;;-150.07;55.20;54949.06;5033496;28;20036;-96
2021/05/01 07:00:31;;;;;;;6.18;4.07;;;;;;;-150.07;55.21;54949.06;5034167;28;20037;-96
2021/05/01 07:03:09;;;;;;;9.77;4.05;;;;;;;-150.07;55.45;54951.16;5037669;28;20051;-94
2021/05/01 07:05:36;;;;;;;7.53;5.78;;;;;;;-150.07;57.76;54951.16;5039821;28;20033;-88
2021/05/01 07:08:04;;;;;;;11.30;4.53;;;;;;;-150.07;59.54;54951.16;5053056;28;20037;-88
2021/05/01 07:10:31;;;;;;;14.20;5.13;;;;;;;-150.07;60.25;54951.16;5056659;28;20045;-90
2021/05/01 07:13:00;;;;;;;14.98;5.53;;;;;;;-150.07;60.16;54951.16;5040351;28;20036;-88
2021/05/01 07:15:27;;;;;;;7.88;4.88;;;;;;;-150.07;60.23;54949.06;5041434;28;20101;-91
2021/05/01 07:17:54;;;;;;;8.88;3.70;;;;;;;-150.07;60.02;54951.16;5056751;28;20021;-89
2021/05/01 07:20:22;;;;;;;6.82;4.22;;;;;;;-150.07;57.98;54951.16;5058585;28;20044;-88
2021/05/01 07:22:53;;;;;;;8.32;4.80;;;;;;;-150.07;57.22;54951.16;5073036;28;20110;-93
2021/05/01 07:25:21;;;;;;;10.73;4.85;;;;;;;-150.07;56.65;54951.16;5056213;28;20036;-89
2021/05/01 07:27:56;;;;;;;14.50;5.72;;;;;;;-150.07;58.54;54951.16;5054580;28;20028;-95
2021/05/01 07:30:26;;;;;;;9.38;5.03;;;;;;;-150.07;60.08;54946.97;5043490;28;20064;-86
2021/05/01 07:33:01;;;;;;;13.45;5.85;;;;;;;-150.07;61.01;54951.16;5034812;28;20056;-86
2021/05/01 07:35:30;;;;;;;9.77;6.10;;;;;;;-150.07;61.50;54951.16;5037342;28;20072;-85
2021/05/01 07:37:57;;;;;;;17.27;8.23;;;;;;;-150.07;62.14;54951.16;5032982;28;20088;-88
2021/05/01 07:40:31;;;;;;;14.45;6.65;;;;;;;-150.07;62.82;54949.06;5035138;28;20109;-89
2021/05/01 07:43:04;;;;;;;14.05;7.43;;;;;;;-150.07;62.85;54951.16;5035010;28;20116;-90
2021/05/01 07:45:31;;;;;;;14.88;6.25;;;;;;;-150.07;61.56;54951.16;5040466;28;20049;-89
2021/05/01 07:48:00;;;;;;;9.45;5.80;;;;;;;-150.07;61.89;54951.16;5035876;28;20029;-90
2021/05/01 07:50:27;;;;;;;11.63;4.95;;;;;;;-150.07;61.57;54951.16;5035532;28;20030;-90
2021/05/01 07:52:55;;;;;;;9.07;4.85;;;;;;;-150.07;60.19;54949.06;5035667;28;20029;-89
2021/05/01 08:12:24;;;;;;;6.40;4.38;;;;;;;-150.07;55.53;54949.06;4977476;28;20038;-88
2021/05/01 08:14:53;;;;;;;5.33;3.67;;;;;;;-150.07;53.79;54946.97;4988471;28;20058;-94
2021/05/01 08:17:20;;;;;;;6.82;3.97;;;;;;;-150.07;55.35;54946.97;4964681;28;20290;-94
2021/05/01 08:19:47;;;;;;;7.35;3.95;;;;;;;-150.07;54.36;54949.06;4979330;28;20377;-93
2021/05/01 08:22:13;;;;;;;7.03;4.38;;;;;;;-150.07;53.80;54949.06;4961651;28;20121;-93
2021/05/01 08:24:43;;;;;;;5.20;4.30;;;;;;;-150.07;54.70;54951.16;4970663;28;20518;-94
2021/05/01 08:27:10;;;;;;;7.70;4.65;;;;;;;-150.07;54.27;54951.16;4969544;28;20026;-93
2021/05/01 08:29:37;;;;;;;10.27;5.15;;;;;;;-150.07;54.69;54951.16;4979698;28;20027;-92
2021/05/01 08:32:04;;;;;;;16.95;6.93;;;;;;;-150.07;54.86;54951.16;4968076;28;20027;-94
2021/05/01 08:34:31;;;;;;;13.80;6.25;;;;;;;-150.07;55.50;54946.97;4969775;28;20057;-94
2021/05/01 08:36:58;;;;;;;12.35;6.57;;;;;;;-150.07;56.15;54951.16;4963109;28;20031;-94
2021/05/01 08:39:25;;;;;;;19.17;6.15;;;;;;;-150.07;57.05;54951.16;4961225;28;20070;-94
2021/05/01 08:41:52;;;;;;;13.00;6.55;;;;;;;-150.07;57.73;54951.16;4962604;28;20030;-94
2021/05/01 08:44:19;;;;;;;12.88;7.15;;;;;;;-150.07;58.65;54951.16;4961773;28;20118;-92
2021/05/01 08:46:48;;;;;;;15.45;7.68;;;;;;;-150.07;59.29;54951.16;4961572;28;20030;-94
2021/05/01 08:49:15;;;;;;;9.88;6.95;;;;;;;-150.07;59.51;54951.16;4960407;28;20086;-93
2021/05/01 08:51:44;;;;;;;14.88;7.20;;;;;;;-150.07;60.73;54951.16;4966259;28;20035;-93
2021/05/01 08:54:15;;;;;;;15.25;8.13;;;;;;;-150.07;60.30;54951.16;4969725;28;20041;-94
2021/05/01 08:56:43;;;;;;;11.68;7.45;;;;;;;-150.07;60.65;54949.06;4968372;28;20051;-93
2021/05/01 08:59:15;;;;;;;12.43;8.02;;;;;;;-150.07;60.87;54949.06;4971157;28;20058;-92
2021/05/01 09:01:42;;;;;;;13.32;8.30;;;;;;;-150.07;59.74;54951.16;4949371;28;20046;-89
2021/05/01 09:04:11;;;;;;;23.70;7.95;;;;;;;-150.07;58.77;54949.06;4967064;28;20031;-87
2021/05/01 09:06:41;;;;;;;13.57;7.47;;;;;;;-150.07;59.51;54951.16;4984123;28;20035;-89
2021/05/01 09:09:10;;;;;;;18.58;6.75;;;;;;;-150.07;58.64;54951.16;4966936;28;20293;-91
2021/05/01 09:11:39;;;;;;;14.57;7.53;;;;;;;-150.07;58.65;54951.16;4966353;28;20134;-92
2021/05/01 09:14:16;;;;;;;12.60;8.17;;;;;;;-150.07;58.46;54951.16;4961908;28;20057;-93
2021/05/01 09:16:44;;;;;;;14.60;6.60;;;;;;;-150.07;57.93;54951.16;4963661;28;20122;-93
2021/05/01 09:19:11;;;;;;;15.25;8.15;;;;;;;-150.07;57.56;54951.16;4967863;28;20114;-90
2021/05/01 09:21:40;;;;;;;11.50;7.72;;;;;;;-150.07;57.29;54951.16;4970873;28;20030;-92
2021/05/01 09:24:22;;;;;;;13.88;8.15;;;;;;;-150.07;57.62;54949.06;4987304;28;20543;-89
2021/05/01 09:26:49;;;;;;;13.10;6.88;;;;;;;-150.07;58.42;54946.97;4973838;28;20030;-89
2021/05/01 09:29:29;;;;;;;20.35;8.10;;;;;;;-150.07;58.27;54946.97;4977816;28;20031;-90
2021/05/01 09:31:56;;;;;;;15.07;6.57;;;;;;;-150.07;57.74;54951.16;4975363;28;20041;-92
2021/05/01 09:34:35;;;;;;;17.98;8.15;;;;;;;-150.07;58.22;54951.16;4958411;28;20122;-90
2021/05/01 09:37:02;;;;;;;15.63;9.07;;;;;;;-150.07;57.07;54949.06;4959101;28;20031;-93
2021/05/01 09:39:29;;;;;;;12.85;8.55;;;;;;;-150.07;57.60;54951.16;4958706;28;20118;-90
2021/05/01 09:41:56;;;;;;;13.18;7.05;;;;;;;-150.07;57.52;54951.16;4960993;28;20429;-92
2021/05/01 09:44:26;;;;;;;13.55;7.80;;;;;;;-150.07;56.99;54951.16;4964250;28;20027;-92
2021/05/01 09:47:02;;;;;;;12.82;7.88;;;;;;;-150.07;56.68;54951.16;4980118;28;20038;-88
2021/05/01 09:49:31;;;;;;;20.33;8.63;;;;;;;-150.07;56.54;54949.06;4961250;28;20492;-90
2021/05/01 09:52:13;;;;;;;11.80;7.63;;;;;;;-150.07;56.58;54949.06;4959388;28;20125;-92
2021/05/01 09:54:46;;;;;;;13.13;8.00;;;;;;;-150.07;55.98;54951.16;4962488;28;20035;-91
2021/05/01 09:57:18;;;;;;;16.75;7.03;;;;;;;-150.07;55.45;54949.06;4961011;28;20117;-89
2021/05/01 09:59:55;;;;;;;16.02;6.45;;;;;;;-150.07;54.72;54949.06;4958041;28;20126;-85
2021/05/01 10:02:31;;;;;;;10.77;6.93;;;;;;;-150.07;54.95;54949.06;4956527;28;20038;-85
2021/05/01 10:05:12;;;;;;;15.07;7.35;;;;;;;-150.07;55.12;54951.16;4956425;28;20509;-85
2021/05/01 10:07:57;;;;;;;13.88;7.40;;;;;;;-150.07;55.65;54951.16;4957491;28;20030;-85
2021/05/01 10:10:47;;;;;;;11.60;6.18;;;;;;;-150.07;55.11;54951.16;4969556;28;20035;-84
2021/05/01 10:13:15;;;;;;;12.75;6.60;;;;;;;-150.07;55.47;54951.16;4949912;28;20127;-85
2021/05/01 10:15:43;;;;;;;10.68;6.13;;;;;;;-150.07;54.79;54949.06;4974938;28;20034;-85
2021/05/01 10:18:20;;;;;;;10.05;5.93;;;;;;;-150.07;55.20;54949.06;4957473;28;20054;-86
2021/05/01 10:20:51;;;;;;;19.00;7.35;;;;;;;-150.07;55.59;54946.97;4956096;28;20050;-86
2021/05/01 10:23:20;;;;;;;13.95;6.40;;;;;;;-150.07;55.82;54951.16;4957496;28;20078;-86
2021/05/01 10:25:48;;;;;;;13.40;7.83;;;;;;;-150.07;56.19;54946.97;4956829;28;20031;-85
2021/05/01 10:28:20;;;;;;;14.93;7.43;;;;;;;-150.07;55.88;54946.97;4956335;28;20023;-84
2021/05/01 10:30:58;;;;;;;15.63;7.25;;;;;;;-150.07;55.78;54951.16;4955607;28;20034;-83
2021/05/01 10:33:33;;;;;;;15.05;7.75;;;;;;;-150.07;54.60;54949.06;4966483;28;20031;-84
2021/05/01 10:36:06;;;;;;;12.25;5.95;;;;;;;-150.07;54.22;54946.97;4952577;28;20058;-85
2021/05/01 10:38:34;;;;;;;8.20;3.83;;;;;;;-150.07;49.22;54951.16;4956949;28;20037;-87
2021/05/01 10:41:03;;;;;;;10.80;4.07;;;;;;;-150.07;47.37;54951.16;4956365;28;20523;-85
2021/05/01 10:43:31;;;;;;;11.03;3.53;;;;;;;-150.07;47.31;54946.97;4957325;28;20037;-85
2021/05/01 10:46:06;;;;;;;6.75;3.80;;;;;;;-150.07;47.10;54946.97;4974291;28;20035;-85
2021/05/01 10:48:47;;;;;;;10.30;4.55;;;;;;;-150.07;46.26;54951.16;4956801;28;20023;-87
2021/05/01 10:51:16;;;;;;;9.25;4.95;;;;;;;-150.07;46.60;54946.97;4956620;28;20098;-87
2021/05/01 10:53:44;;;;;;;4.03;3.10;;;;;;;-150.07;46.91;54949.06;4944480;28;20027;-86
2021/05/01 10:56:12;;;;;;;11.98;4.40;;;;;;;-150.07;47.15;54946.97;4973875;28;20031;-85
2021/05/01 10:58:46;;;;;;;7.43;4.28;;;;;;;-150.07;47.36;54951.16;4972847;28;20481;-86
2021/05/01 11:01:32;;;;;;;9.73;4.57;;;;;;;-150.07;47.21;54951.16;4964974;28;20033;-85
2021/05/01 11:04:03;;;;;;;4.50;3.55;;;;;;;-150.07;47.44;54951.16;4957180;28;20085;-85
2021/05/01 11:06:45;;;;;;;7.65;3.95;;;;;;;-150.07;47.69;54951.16;4974683;28;20559;-84
2021/05/01 11:09:26;;;;;;;9.18;4.35;;;;;;;-150.07;48.24;54951.16;4957269;28;20045;-86
2021/05/01 11:12:00;;;;;;;8.45;4.03;;;;;;;-150.07;48.36;54951.16;4951115;28;20023;-84
2021/05/01 11:14:32;;;;;;;7.38;3.35;;;;;;;-150.07;48.79;54951.16;4973702;28;20050;-86
2021/05/01 11:17:14;;;;;;;7.07;4.18;;;;;;;-150.07;49.19;54949.06;4956216;28;20026;-86
2021/05/01 11:19:46;;;;;;;6.38;3.65;;;;;;;-150.07;49.73;54951.16;4956491;28;20037;-86
2021/05/01 11:22:14;;;;;;;3.95;3.20;;;;;;;-150.07;50.81;54951.16;4972481;28;20445;-87
2021/05/01 11:24:44;;;;;;;3.95;3.55;;;;;;;-150.07;51.50;54951.16;4955981;28;20023;-86
2021/05/01 11:27:12;;;;;;;7.70;2.83;;;;;;;-150.07;52.59;54951.16;4955873;28;20510;-86
2021/05/01 11:29:40;;;;;;;5.97;3.13;;;;;;;-150.07;53.14;54951.16;4956353;28;20101;-85
2021/05/01 11:32:08;;;;;;;5.40;3.15;;;;;;;-150.07;54.08;54949.06;4955079;28;20035;-85
2021/05/01 11:34:36;;;;;;;4.55;4.03;;;;;;;-150.07;54.81;54951.16;4955597;28;20035;-85